createdAt,value
2019-06-02T00:00:20.674Z,1014.44
2019-06-02T00:01:01.275Z,1014.43
2019-06-02T00:01:41.884Z,1014.43
2019-06-02T00:02:22.463Z,1014.43
2019-06-02T00:03:03.030Z,1014.39
2019-06-02T00:03:43.613Z,1014.43
2019-06-02T00:04:24.192Z,1014.42
2019-06-02T00:05:04.815Z,1014.42
2019-06-02T00:05:45.372Z,1014.4
2019-06-02T00:06:26.286Z,1014.41
2019-06-02T00:07:06.585Z,1014.41
2019-06-02T00:07:47.159Z,1014.42
2019-06-02T00:08:28.397Z,1014.44
2019-06-02T00:09:08.325Z,1014.42
2019-06-02T00:09:48.906Z,1014.45
2019-06-02T00:10:30.538Z,1014.41
2019-06-02T00:11:10.109Z,1014.42
2019-06-02T00:11:50.683Z,1014.44
2019-06-02T00:12:31.274Z,1014.39
2019-06-02T00:13:11.868Z,1014.43
2019-06-02T00:13:52.443Z,1014.44
2019-06-02T00:14:36.978Z,1014.46
2019-06-02T00:15:13.607Z,1014.42
2019-06-02T00:15:54.205Z,1014.41
2019-06-02T00:16:35.014Z,1014.43
2019-06-02T00:17:15.357Z,1014.52
2019-06-02T00:17:55.994Z,1014.48
2019-06-02T00:18:36.610Z,1014.52
2019-06-02T00:19:18.101Z,1014.56
2019-06-02T00:19:58.691Z,1014.56
2019-06-02T00:20:39.277Z,1014.56
2019-06-02T00:21:19.840Z,1014.56
2019-06-02T00:22:00.436Z,1014.58
2019-06-02T00:22:42.388Z,1014.6
2019-06-02T00:23:21.700Z,1014.6
2019-06-02T00:24:02.287Z,1014.57
2019-06-02T00:24:42.913Z,1014.57
2019-06-02T00:25:23.525Z,1014.56
2019-06-02T00:26:04.097Z,1014.57
2019-06-02T00:26:44.709Z,1014.55
2019-06-02T00:27:26.370Z,1014.56
2019-06-02T00:28:05.904Z,1014.56
2019-06-02T00:28:46.535Z,1014.58
2019-06-02T00:29:28.004Z,1014.55
2019-06-02T00:30:07.674Z,1014.54
2019-06-02T00:30:48.245Z,1014.56
2019-06-02T00:31:29.910Z,1014.53
2019-06-02T00:32:09.433Z,1014.52
2019-06-02T00:32:49.997Z,1014.55
2019-06-02T00:33:31.707Z,1014.53
2019-06-02T00:34:11.175Z,1014.53
2019-06-02T00:34:51.767Z,1014.61
2019-06-02T00:35:32.355Z,1014.54
2019-06-02T00:36:12.945Z,1014.57
2019-06-02T00:36:53.549Z,1014.6
2019-06-02T00:37:34.382Z,1014.59
2019-06-02T00:38:14.715Z,1014.61
2019-06-02T00:38:55.331Z,1014.64
2019-06-02T00:39:35.921Z,1014.67
2019-06-02T00:40:16.492Z,1014.64
2019-06-02T00:40:57.052Z,1014.69
2019-06-02T00:41:37.602Z,1014.66
2019-06-02T00:42:18.175Z,1014.69
2019-06-02T00:42:58.745Z,1014.66
2019-06-02T00:43:39.373Z,1014.67
2019-06-02T00:44:19.972Z,1014.7
2019-06-02T00:45:00.597Z,1014.68
2019-06-02T00:45:41.188Z,1014.68
2019-06-02T00:46:21.762Z,1014.7
2019-06-02T00:47:02.325Z,1014.69
2019-06-02T00:47:42.924Z,1014.69
2019-06-02T00:48:23.536Z,1014.72
2019-06-02T00:49:04.127Z,1014.67
2019-06-02T00:49:44.737Z,1014.7
2019-06-02T00:50:25.367Z,1014.68
2019-06-02T00:51:05.966Z,1014.67
2019-06-02T00:51:46.562Z,1014.65
2019-06-02T00:52:27.461Z,1014.67
2019-06-02T00:53:07.762Z,1014.67
2019-06-02T00:53:48.329Z,1014.77
2019-06-02T00:54:29.832Z,1014.74
2019-06-02T00:55:09.535Z,1014.73
2019-06-02T00:55:50.098Z,1014.73
2019-06-02T00:56:31.694Z,1014.74
2019-06-02T00:57:11.261Z,1014.73
2019-06-02T00:57:51.842Z,1014.7
2019-06-02T00:58:33.225Z,1014.72
2019-06-02T00:59:13.053Z,1014.73
2019-06-02T00:59:53.642Z,1014.65
2019-06-02T01:00:34.368Z,1014.68
2019-06-02T01:01:14.801Z,1014.66
2019-06-02T01:01:58.372Z,1014.69
2019-06-02T01:02:36.188Z,1014.66
2019-06-02T01:03:16.558Z,1014.68
2019-06-02T01:03:57.123Z,1014.63
2019-06-02T01:04:38.460Z,1014.68
2019-06-02T01:05:18.319Z,1014.64
2019-06-02T01:05:58.869Z,1014.64
2019-06-02T01:06:39.448Z,1014.71
2019-06-02T01:07:20.043Z,1014.66
2019-06-02T01:08:00.645Z,1014.69
2019-06-02T01:08:41.299Z,1014.65
2019-06-02T01:09:21.888Z,1014.66
2019-06-02T01:10:02.711Z,1014.64
2019-06-02T01:13:01.548Z,1014.63
2019-06-02T01:13:42.128Z,1014.62
2019-06-02T01:14:22.696Z,1014.61
2019-06-02T01:15:08.333Z,1014.63
2019-06-02T01:15:43.847Z,1014.63
2019-06-02T01:16:24.410Z,1014.62
2019-06-02T01:17:04.979Z,1014.6
2019-06-02T01:17:45.526Z,1014.64
2019-06-02T01:18:26.108Z,1014.61
2019-06-02T01:19:06.707Z,1014.59
2019-06-02T01:21:35.271Z,1014.61
2019-06-02T01:22:15.398Z,1014.56
2019-06-02T01:22:55.959Z,1014.59
2019-06-02T01:23:37.296Z,1014.62
2019-06-02T01:24:17.096Z,1014.6
2019-06-02T01:24:57.670Z,1014.6
2019-06-02T01:25:39.689Z,1014.6
2019-06-02T01:26:18.853Z,1014.63
2019-06-02T01:26:59.419Z,1014.58
2019-06-02T01:27:39.997Z,1014.59
2019-06-02T01:28:20.556Z,1014.59
2019-06-02T01:29:01.134Z,1014.58
2019-06-02T01:29:41.699Z,1014.58
2019-06-02T01:30:22.253Z,1014.56
2019-06-02T01:31:02.799Z,1014.53
2019-06-02T01:31:44.488Z,1014.54
2019-06-02T01:32:23.928Z,1014.54
2019-06-02T01:33:04.497Z,1014.53
2019-06-02T01:33:45.065Z,1014.51
2019-06-02T01:34:25.613Z,1014.53
2019-06-02T01:35:06.178Z,1014.52
2019-06-02T01:35:46.751Z,1014.57
2019-06-02T01:36:27.327Z,1014.51
2019-06-02T01:37:07.920Z,1014.52
2019-06-02T01:37:48.492Z,1014.55
2019-06-02T01:38:29.737Z,1014.52
2019-06-02T01:39:09.596Z,1014.51
2019-06-02T01:39:50.170Z,1014.55
2019-06-02T01:40:30.719Z,1014.55
2019-06-02T01:41:11.285Z,1014.55
2019-06-02T01:41:51.857Z,1014.57
2019-06-02T01:42:32.418Z,1014.56
2019-06-02T01:43:12.975Z,1014.6
2019-06-02T01:43:53.540Z,1014.6
2019-06-02T01:44:34.530Z,1014.59
2019-06-02T01:45:25.948Z,1014.58
2019-06-02T01:45:55.261Z,1014.59
2019-06-02T01:46:36.555Z,1014.57
2019-06-02T01:47:16.381Z,1014.56
2019-06-02T01:47:56.995Z,1014.57
2019-06-02T01:48:38.667Z,1014.57
2019-06-02T01:49:18.121Z,1014.58
2019-06-02T01:49:58.687Z,1014.6
2019-06-02T01:50:39.237Z,1014.6
2019-06-02T01:51:19.796Z,1014.56
2019-06-02T01:52:00.374Z,1014.57
2019-06-02T01:52:41.313Z,1014.57
2019-06-02T01:53:21.505Z,1014.57
2019-06-02T01:54:02.061Z,1014.59
2019-06-02T01:54:42.639Z,1014.58
2019-06-02T01:55:23.196Z,1014.57
2019-06-02T01:56:03.758Z,1014.6
2019-06-02T01:56:44.370Z,1014.63
2019-06-02T01:57:24.885Z,1014.62
2019-06-02T01:58:05.436Z,1014.6
2019-06-02T01:58:45.991Z,1014.58
2019-06-02T01:59:26.559Z,1014.6
2019-06-02T02:00:07.118Z,1014.57
2019-06-02T02:00:47.690Z,1014.58
2019-06-02T02:01:28.245Z,1014.57
2019-06-02T02:02:08.848Z,1014.59
2019-06-02T02:02:49.416Z,1014.55
2019-06-02T02:03:31.324Z,1014.58
2019-06-02T02:04:10.563Z,1014.55
2019-06-02T02:04:51.141Z,1014.61
2019-06-02T02:05:31.895Z,1014.61
2019-06-02T02:06:12.328Z,1014.59
2019-06-02T02:06:52.818Z,1014.63
2019-06-02T02:07:34.299Z,1014.66
2019-06-02T02:08:13.940Z,1014.66
2019-06-02T02:08:54.504Z,1014.65
2019-06-02T02:09:36.663Z,1014.69
2019-06-02T02:10:15.640Z,1014.76
2019-06-02T02:10:56.201Z,1014.68
2019-06-02T02:11:38.039Z,1014.68
2019-06-02T02:12:17.344Z,1014.72
2019-06-02T02:12:57.906Z,1014.7
2019-06-02T02:13:38.505Z,1014.69
2019-06-02T02:14:19.054Z,1014.69
2019-06-02T02:14:59.675Z,1014.7
2019-06-02T02:15:51.236Z,1014.69
2019-06-02T02:16:20.808Z,1014.68
2019-06-02T02:17:01.365Z,1014.65
2019-06-02T02:17:42.746Z,1014.66
2019-06-02T02:18:22.501Z,1014.69
2019-06-02T02:19:03.075Z,1014.65
2019-06-02T02:19:43.639Z,1014.65
2019-06-02T02:20:24.209Z,1014.6
2019-06-02T02:21:04.774Z,1014.63
2019-06-02T02:21:46.214Z,1014.64
2019-06-02T02:22:25.903Z,1014.62
2019-06-02T02:23:06.451Z,1014.64
2019-06-02T02:23:47.021Z,1014.62
2019-06-02T02:24:27.583Z,1014.61
2019-06-02T02:25:08.168Z,1014.6
2019-06-02T02:25:48.743Z,1014.6
2019-06-02T02:26:29.309Z,1014.58
2019-06-02T02:27:09.875Z,1014.57
2019-06-02T02:27:50.446Z,1014.59
2019-06-02T02:28:31.003Z,1014.54
2019-06-02T02:29:11.573Z,1014.56
2019-06-02T02:29:52.135Z,1014.54
2019-06-02T02:30:32.703Z,1014.56
2019-06-02T02:31:13.274Z,1014.55
2019-06-02T02:31:53.827Z,1014.54
2019-06-02T02:32:34.973Z,1014.55
2019-06-02T02:33:14.952Z,1014.58
2019-06-02T02:33:55.522Z,1014.58
2019-06-02T02:34:37.757Z,1014.54
2019-06-02T02:35:16.650Z,1014.56
2019-06-02T02:35:57.213Z,1014.58
2019-06-02T02:36:39.615Z,1014.58
2019-06-02T02:37:18.325Z,1014.53
2019-06-02T02:37:58.878Z,1014.6
2019-06-02T02:38:40.604Z,1014.6
2019-06-02T02:39:20.029Z,1014.58
2019-06-02T02:40:00.595Z,1014.56
2019-06-02T02:40:42.363Z,1014.55
2019-06-02T02:41:21.726Z,1014.56
2019-06-02T02:42:02.287Z,1014.56
2019-06-02T02:42:45.269Z,1014.57
2019-06-02T02:43:23.408Z,1014.52
2019-06-02T02:44:03.976Z,1014.51
2019-06-02T02:44:45.405Z,1014.55
2019-06-02T02:45:25.103Z,1014.6
2019-06-02T02:46:12.505Z,1014.53
2019-06-02T02:46:47.198Z,1014.57
2019-06-02T02:47:26.781Z,1014.61
2019-06-02T02:48:07.335Z,1014.56
2019-06-02T02:48:47.900Z,1014.55
2019-06-02T02:49:28.470Z,1014.59
2019-06-02T02:50:09.049Z,1014.59
2019-06-02T02:50:49.613Z,1014.55
2019-06-02T02:51:30.188Z,1014.6
2019-06-02T02:52:10.756Z,1014.58
2019-06-02T02:52:51.335Z,1014.56
2019-06-02T02:53:31.885Z,1014.58
2019-06-02T02:54:12.445Z,1014.58
2019-06-02T02:54:53.016Z,1014.59
2019-06-02T02:55:35.695Z,1014.56
2019-06-02T02:56:14.145Z,1014.62
2019-06-02T02:56:54.714Z,1014.58
2019-06-02T02:57:35.818Z,1014.57
2019-06-02T02:58:15.847Z,1014.59
2019-06-02T02:58:56.417Z,1014.62
2019-06-02T02:59:37.754Z,1014.58
2019-06-02T03:00:17.539Z,1014.62
2019-06-02T03:00:58.112Z,1014.59
2019-06-02T03:01:39.982Z,1014.6
2019-06-02T03:02:19.267Z,1014.59
2019-06-02T03:02:59.830Z,1014.59
2019-06-02T03:03:41.750Z,1014.58
2019-06-02T03:04:20.966Z,1014.6
2019-06-02T03:05:01.567Z,1014.59
2019-06-02T03:05:43.712Z,1014.61
2019-06-02T03:06:22.656Z,1014.58
2019-06-02T03:07:03.229Z,1014.58
2019-06-02T03:07:44.752Z,1014.59
2019-06-02T03:08:24.350Z,1014.59
2019-06-02T03:09:04.921Z,1014.56
2019-06-02T03:09:46.604Z,1014.54
2019-06-02T03:10:26.053Z,1014.54
2019-06-02T03:11:06.616Z,1014.54
2019-06-02T03:11:47.404Z,1014.54
2019-06-02T03:12:27.723Z,1014.56
2019-06-02T03:13:08.303Z,1014.52
2019-06-02T03:13:48.886Z,1014.5
2019-06-02T03:14:29.438Z,1014.53
2019-06-02T03:15:10.001Z,1014.53
2019-06-02T03:15:50.566Z,1014.54
2019-06-02T03:16:33.282Z,1014.53
2019-06-02T03:17:11.695Z,1014.5
2019-06-02T03:17:52.264Z,1014.55
2019-06-02T03:18:32.840Z,1014.54
2019-06-02T03:19:13.439Z,1014.54
2019-06-02T03:19:54.005Z,1014.55
2019-06-02T03:20:36.012Z,1014.54
2019-06-02T03:21:15.126Z,1014.55
2019-06-02T03:21:55.690Z,1014.58
2019-06-02T03:22:38.382Z,1014.54
2019-06-02T03:23:16.822Z,1014.56
2019-06-02T03:23:57.385Z,1014.56
2019-06-02T03:24:38.369Z,1014.58
2019-06-02T03:25:18.522Z,1014.54
2019-06-02T03:25:59.087Z,1014.55
2019-06-02T03:26:40.228Z,1014.56
2019-06-02T03:27:20.209Z,1014.52
2019-06-02T03:28:00.774Z,1014.59
2019-06-02T03:28:42.800Z,1014.52
2019-06-02T03:29:21.931Z,1014.51
2019-06-02T03:30:02.502Z,1014.52
2019-06-02T03:30:50.601Z,1014.51
2019-06-02T03:31:23.627Z,1014.49
2019-06-02T03:32:04.204Z,1014.53
2019-06-02T03:32:55.641Z,1014.49
2019-06-02T03:33:25.310Z,1014.47
2019-06-02T03:34:05.873Z,1014.5
2019-06-02T03:34:50.792Z,1014.53
2019-06-02T03:35:26.984Z,1014.51
2019-06-02T03:36:07.557Z,1014.54
2019-06-02T03:36:52.933Z,1014.54
2019-06-02T03:37:28.696Z,1014.53
2019-06-02T03:38:09.286Z,1014.54
2019-06-02T03:38:49.845Z,1014.52
2019-06-02T03:39:30.415Z,1014.54
2019-06-02T03:40:10.984Z,1014.53
2019-06-02T03:40:51.554Z,1014.55
2019-06-02T03:41:32.121Z,1014.53
2019-06-02T03:42:12.674Z,1014.51
2019-06-02T03:42:53.234Z,1014.55
2019-06-02T03:43:33.811Z,1014.53
2019-06-02T03:44:14.348Z,1014.55
2019-06-02T03:44:54.925Z,1014.57
2019-06-02T03:45:35.493Z,1014.57
2019-06-02T03:46:16.080Z,1014.61
2019-06-02T03:47:06.777Z,1014.55
2019-06-02T03:47:38.146Z,1014.62
2019-06-02T03:48:17.789Z,1014.58
2019-06-02T03:48:58.364Z,1014.62
2019-06-02T03:49:39.832Z,1014.57
2019-06-02T03:50:19.513Z,1014.59
2019-06-02T03:51:00.065Z,1014.61
2019-06-02T03:51:42.238Z,1014.59
2019-06-02T03:52:21.199Z,1014.64
2019-06-02T03:53:01.763Z,1014.57
2019-06-02T03:53:44.286Z,1014.53
2019-06-02T03:54:22.983Z,1014.59
2019-06-02T03:55:03.540Z,1014.54
2019-06-02T03:55:44.692Z,1014.58
2019-06-02T03:56:24.666Z,1014.54
2019-06-02T03:57:05.225Z,1014.56
2019-06-02T03:57:47.436Z,1014.53
2019-06-02T03:58:26.357Z,1014.54
2019-06-02T03:59:06.928Z,1014.52
2019-06-02T03:59:48.724Z,1014.51
2019-06-02T04:00:28.047Z,1014.51
2019-06-02T04:01:08.627Z,1014.53
2019-06-02T04:01:49.191Z,1014.53
2019-06-02T04:02:29.770Z,1014.54
2019-06-02T04:03:10.343Z,1014.52
2019-06-02T04:03:50.903Z,1014.5
2019-06-02T04:04:31.464Z,1014.5
2019-06-02T04:05:12.030Z,1014.49
2019-06-02T04:05:52.615Z,1014.49
2019-06-02T04:06:33.183Z,1014.48
2019-06-02T04:07:13.745Z,1014.48
2019-06-02T04:07:54.310Z,1014.5
2019-06-02T04:08:34.868Z,1014.52
2019-06-02T04:09:15.441Z,1014.52
2019-06-02T04:09:56.017Z,1014.51
2019-06-02T04:10:36.612Z,1014.56
2019-06-02T04:11:17.158Z,1014.51
2019-06-02T04:11:57.755Z,1014.56
2019-06-02T04:12:39.571Z,1014.57
2019-06-02T04:13:18.890Z,1014.57
2019-06-02T04:13:59.437Z,1014.58
2019-06-02T04:14:41.446Z,1014.59
2019-06-02T04:15:20.576Z,1014.56
2019-06-02T04:16:01.121Z,1014.62
2019-06-02T04:16:41.690Z,1014.55
2019-06-02T04:17:22.237Z,1014.55
2019-06-02T04:18:02.806Z,1014.62
2019-06-02T04:18:43.987Z,1014.54
2019-06-02T04:19:23.942Z,1014.55
2019-06-02T04:20:04.503Z,1014.57
2019-06-02T04:20:46.463Z,1014.58
2019-06-02T04:21:25.629Z,1014.61
2019-06-02T04:22:06.194Z,1014.61
2019-06-02T04:22:49.084Z,1014.58
2019-06-02T04:23:27.320Z,1014.61
2019-06-02T04:24:07.891Z,1014.61
2019-06-02T04:24:50.001Z,1014.58
2019-06-02T04:25:29.020Z,1014.6
2019-06-02T04:26:09.579Z,1014.62
2019-06-02T04:26:50.723Z,1014.59
2019-06-02T04:27:30.799Z,1014.58
2019-06-02T04:28:11.474Z,1014.61
2019-06-02T04:28:51.948Z,1014.59
2019-06-02T04:29:32.666Z,1014.55
2019-06-02T04:30:13.356Z,1014.56
2019-06-02T04:30:53.999Z,1014.57
2019-06-02T04:31:34.684Z,1014.54
2019-06-02T04:32:15.294Z,1014.55
2019-06-02T04:32:55.947Z,1014.54
2019-06-02T04:33:36.649Z,1014.58
2019-06-02T04:34:17.474Z,1014.59
2019-06-02T04:34:58.071Z,1014.53
2019-06-02T04:35:40.621Z,1014.59
2019-06-02T04:36:19.330Z,1014.54
2019-06-02T04:36:59.892Z,1014.58
2019-06-02T04:37:40.893Z,1014.6
2019-06-02T04:38:22.328Z,1014.58
2019-06-02T04:39:01.975Z,1014.57
2019-06-02T04:39:43.259Z,1014.62
2019-06-02T04:40:23.365Z,1014.59
2019-06-02T04:41:04.082Z,1014.6
2019-06-02T04:41:47.103Z,1014.61
2019-06-02T04:42:26.006Z,1014.62
2019-06-02T04:43:06.783Z,1014.59
2019-06-02T04:43:47.946Z,1014.58
2019-06-02T04:44:28.001Z,1014.59
2019-06-02T04:45:08.739Z,1014.59
2019-06-02T04:45:51.110Z,1014.57
2019-06-02T04:46:29.861Z,1014.6
2019-06-02T04:47:10.507Z,1014.58
2019-06-02T04:47:52.868Z,1014.62
2019-06-02T04:48:31.929Z,1014.59
2019-06-02T04:49:12.554Z,1014.57
2019-06-02T04:49:57.652Z,1014.59
2019-06-02T04:50:34.292Z,1014.59
2019-06-02T04:51:14.995Z,1014.57
2019-06-02T04:54:28.910Z,1014.59
2019-06-02T04:55:09.467Z,1014.61
2019-06-02T04:55:50.582Z,1014.62
2019-06-02T04:56:30.591Z,1014.63
2019-06-02T04:57:11.161Z,1014.62
2019-06-02T04:57:53.580Z,1014.59
2019-06-02T04:58:32.283Z,1014.6
2019-06-02T04:59:12.848Z,1014.6
2019-06-02T04:59:53.616Z,1014.62
2019-06-02T05:02:06.312Z,1014.63
2019-06-02T05:02:48.623Z,1014.64
2019-06-02T05:03:27.527Z,1014.61
2019-06-02T05:04:08.105Z,1014.66
2019-06-02T05:04:49.486Z,1014.65
2019-06-02T05:05:29.218Z,1014.65
2019-06-02T05:06:09.788Z,1014.68
2019-06-02T05:06:50.943Z,1014.69
2019-06-02T05:07:30.936Z,1014.65
2019-06-02T05:08:11.519Z,1014.67
2019-06-02T05:08:52.442Z,1014.68
2019-06-02T05:09:32.657Z,1014.67
2019-06-02T05:10:13.226Z,1014.64
2019-06-02T05:10:53.796Z,1014.63
2019-06-02T05:11:34.382Z,1014.66
2019-06-02T05:12:14.959Z,1014.62
2019-06-02T05:12:56.730Z,1014.66
2019-06-02T05:13:36.104Z,1014.61
2019-06-02T05:14:16.673Z,1014.61
2019-06-02T05:14:57.235Z,1014.64
2019-06-02T05:15:37.815Z,1014.65
2019-06-02T05:16:18.368Z,1014.64
2019-06-02T05:16:58.950Z,1014.59
2019-06-02T05:17:53.424Z,1014.56
2019-06-02T05:18:20.103Z,1014.61
2019-06-02T05:19:00.678Z,1014.62
2019-06-02T05:19:41.312Z,1014.6
2019-06-02T05:20:21.863Z,1014.64
2019-06-02T05:21:02.435Z,1014.63
2019-06-02T05:21:44.267Z,1014.67
2019-06-02T05:22:23.573Z,1014.63
2019-06-02T05:23:04.154Z,1014.68
2019-06-02T05:23:44.706Z,1014.64
2019-06-02T05:24:25.303Z,1014.67
2019-06-02T05:25:05.900Z,1014.7
2019-06-02T05:25:46.802Z,1014.68
2019-06-02T05:26:27.209Z,1014.71
2019-06-02T05:27:07.790Z,1014.66
2019-06-02T05:27:48.771Z,1014.69
2019-06-02T05:28:29.009Z,1014.72
2019-06-02T05:29:09.565Z,1014.72
2019-06-02T05:29:50.992Z,1014.74
2019-06-02T05:30:30.741Z,1014.76
2019-06-02T05:31:11.338Z,1014.78
2019-06-02T05:31:55.429Z,1014.73
2019-06-02T05:32:32.491Z,1014.76
2019-06-02T05:33:13.092Z,1014.75
2019-06-02T05:33:53.716Z,1014.76
2019-06-02T05:34:34.244Z,1014.77
2019-06-02T05:35:14.820Z,1014.78
2019-06-02T05:35:56.123Z,1014.81
2019-06-02T05:36:36.010Z,1014.79
2019-06-02T05:37:16.589Z,1014.84
2019-06-02T05:37:57.170Z,1014.9
2019-06-02T05:38:37.764Z,1014.89
2019-06-02T05:39:18.347Z,1014.9
2019-06-02T05:39:58.920Z,1014.83
2019-06-02T05:40:39.544Z,1014.78
2019-06-02T05:41:20.100Z,1014.86
2019-06-02T05:42:00.679Z,1014.81
2019-06-02T05:42:41.237Z,1014.77
2019-06-02T05:43:21.811Z,1014.81
2019-06-02T05:44:02.387Z,1014.85
2019-06-02T05:44:42.951Z,1014.8
2019-06-02T05:45:23.557Z,1014.87
2019-06-02T05:46:04.110Z,1014.86
2019-06-02T05:46:45.867Z,1014.74
2019-06-02T05:47:25.232Z,1014.78
2019-06-02T05:48:13.738Z,1014.7
2019-06-02T05:48:46.442Z,1014.72
2019-06-02T05:49:27.049Z,1014.74
2019-06-02T05:50:07.642Z,1014.7
2019-06-02T05:50:48.327Z,1014.75
2019-06-02T05:51:28.858Z,1014.71
2019-06-02T05:52:09.808Z,1014.75
2019-06-02T05:52:51.360Z,1014.73
2019-06-02T05:53:30.965Z,1014.75
2019-06-02T05:54:11.508Z,1014.75
2019-06-02T05:54:52.806Z,1014.75
2019-06-02T05:55:32.787Z,1014.76
2019-06-02T05:56:13.347Z,1014.77
2019-06-02T05:56:55.060Z,1014.75
2019-06-02T05:57:34.571Z,1014.77
2019-06-02T05:58:15.130Z,1014.69
2019-06-02T05:58:55.956Z,1014.79
2019-06-02T05:59:36.292Z,1014.75
2019-06-02T06:00:16.861Z,1014.74
2019-06-02T06:00:58.210Z,1014.72
2019-06-02T06:01:38.144Z,1014.74
2019-06-02T06:02:18.625Z,1014.73
2019-06-02T06:03:02.739Z,1014.71
2019-06-02T06:03:39.844Z,1014.74
2019-06-02T06:04:20.426Z,1014.74
2019-06-02T06:05:01.045Z,1014.75
2019-06-02T06:05:41.665Z,1014.74
2019-06-02T06:06:22.246Z,1014.75
2019-06-02T06:07:02.834Z,1014.76
2019-06-02T06:07:43.445Z,1014.8
2019-06-02T06:08:24.037Z,1014.81
2019-06-02T06:09:04.609Z,1014.79
2019-06-02T06:09:45.234Z,1014.81
2019-06-02T06:10:26.035Z,1014.81
2019-06-02T06:11:06.637Z,1014.8
2019-06-02T06:11:47.253Z,1014.84
2019-06-02T06:12:27.802Z,1014.84
2019-06-02T06:13:08.394Z,1014.93
2019-06-02T06:13:49.298Z,1014.9
2019-06-02T06:14:29.614Z,1014.88
2019-06-02T06:15:10.221Z,1014.87
2019-06-02T06:15:54.445Z,1014.85
2019-06-02T06:16:31.472Z,1014.83
2019-06-02T06:17:12.050Z,1014.8
2019-06-02T06:17:54.022Z,1014.81
2019-06-02T06:18:33.215Z,1014.81
2019-06-02T06:19:13.825Z,1014.81
2019-06-02T06:19:54.406Z,1014.83
2019-06-02T06:20:35.038Z,1014.86
2019-06-02T06:21:15.613Z,1014.84
2019-06-02T06:21:56.675Z,1014.87
2019-06-02T06:22:36.801Z,1014.97
2019-06-02T06:23:17.365Z,1015
2019-06-02T06:23:58.786Z,1014.88
2019-06-02T06:24:38.505Z,1014.91
2019-06-02T06:25:19.144Z,1014.88
2019-06-02T06:26:02.863Z,1014.92
2019-06-02T06:26:40.352Z,1014.96
2019-06-02T06:27:20.939Z,1014.91
2019-06-02T06:28:01.663Z,1015.07
2019-06-02T06:28:42.417Z,1015.1
2019-06-02T06:29:23.015Z,1015.15
2019-06-02T06:30:03.654Z,1015.3
2019-06-02T06:30:44.252Z,1015.21
2019-06-02T06:31:24.894Z,1015.15
2019-06-02T06:32:05.439Z,1015.35
2019-06-02T06:32:46.012Z,1015.46
2019-06-02T06:33:26.631Z,1015.34
2019-06-02T06:34:07.230Z,1015.33
2019-06-02T06:34:47.827Z,1015.15
2019-06-02T06:35:28.432Z,1015.21
2019-06-02T06:36:09.443Z,1015.31
2019-06-02T06:36:50.029Z,1015.26
2019-06-02T06:37:30.720Z,1015.09
2019-06-02T06:38:11.351Z,1015.19
2019-06-02T06:39:05.297Z,1015.01
2019-06-02T06:39:32.786Z,1014.97
2019-06-02T06:40:13.463Z,1015.19
2019-06-02T06:40:54.813Z,1015.05
2019-06-02T06:41:34.587Z,1014.99
2019-06-02T06:42:15.178Z,1015
2019-06-02T06:42:56.596Z,1014.94
2019-06-02T06:43:36.322Z,1015.05
2019-06-02T06:44:16.979Z,1014.91
2019-06-02T06:44:58.377Z,1014.93
2019-06-02T06:45:38.258Z,1014.97
2019-06-02T06:46:18.859Z,1015.01
2019-06-02T06:46:59.903Z,1015.01
2019-06-02T06:47:40.010Z,1015
2019-06-02T06:48:20.604Z,1015.02
2019-06-02T06:49:02.848Z,1015.03
2019-06-02T06:49:42.148Z,1015.12
2019-06-02T06:50:22.888Z,1015.16
2019-06-02T06:51:03.507Z,1015.16
2019-06-02T06:51:44.290Z,1015.04
2019-06-02T06:52:25.231Z,1015.03
2019-06-02T06:53:06.762Z,1015
2019-06-02T06:53:46.467Z,1015.03
2019-06-02T06:54:27.374Z,1014.98
2019-06-02T06:55:10.826Z,1014.95
2019-06-02T06:55:48.699Z,1014.98
2019-06-02T06:56:29.274Z,1014.96
2019-06-02T06:57:09.841Z,1015.01
2019-06-02T06:57:50.406Z,1015.03
2019-06-02T06:58:31.013Z,1015
2019-06-02T06:59:11.599Z,1014.98
2019-06-02T06:59:52.162Z,1015
2019-06-02T07:00:32.754Z,1015.01
2019-06-02T07:01:13.328Z,1015.05
2019-06-02T07:01:54.034Z,1015.04
2019-06-02T07:02:34.527Z,1015.03
2019-06-02T07:03:15.099Z,1015.03
2019-06-02T07:03:56.148Z,1015.06
2019-06-02T07:04:36.257Z,1015.03
2019-06-02T07:05:17.198Z,1015.04
2019-06-02T07:05:58.999Z,1015.08
2019-06-02T07:06:38.034Z,1015.1
2019-06-02T07:07:18.615Z,1015.14
2019-06-02T07:08:00.529Z,1015.15
2019-06-02T07:08:39.787Z,1015.23
2019-06-02T07:09:20.406Z,1015.2
2019-06-02T07:10:01.410Z,1015.06
2019-06-02T07:10:42.008Z,1015.04
2019-06-02T07:11:22.621Z,1015.02
2019-06-02T07:12:03.341Z,1014.98
2019-06-02T07:12:43.897Z,1014.97
2019-06-02T07:13:24.474Z,1014.95
2019-06-02T07:14:05.606Z,1014.95
2019-06-02T07:14:45.669Z,1014.9
2019-06-02T07:15:26.305Z,1014.93
2019-06-02T07:16:07.938Z,1014.91
2019-06-02T07:16:49.768Z,1014.94
2019-06-02T07:17:28.102Z,1014.95
2019-06-02T07:18:08.698Z,1014.96
2019-06-02T07:19:03.913Z,1014.93
2019-06-02T07:19:29.915Z,1014.99
2019-06-02T07:20:10.500Z,1014.95
2019-06-02T07:20:51.102Z,1014.99
2019-06-02T07:21:31.702Z,1014.97
2019-06-02T07:22:12.325Z,1015
2019-06-02T07:22:52.896Z,1014.95
2019-06-02T07:23:33.478Z,1015
2019-06-02T07:24:14.094Z,1014.95
2019-06-02T07:24:54.729Z,1014.96
2019-06-02T07:25:35.314Z,1014.98
2019-06-02T07:26:15.915Z,1014.97
2019-06-02T07:26:57.126Z,1014.97
2019-06-02T07:27:37.262Z,1014.96
2019-06-02T07:28:17.840Z,1014.95
2019-06-02T07:29:00.471Z,1014.92
2019-06-02T07:29:39.009Z,1014.92
2019-06-02T07:30:19.585Z,1014.97
2019-06-02T07:31:01.337Z,1014.88
2019-06-02T07:31:40.751Z,1014.89
2019-06-02T07:32:21.339Z,1014.87
2019-06-02T07:33:01.937Z,1014.88
2019-06-02T07:33:42.527Z,1014.88
2019-06-02T07:34:23.155Z,1014.84
2019-06-02T07:35:04.069Z,1014.86
2019-06-02T07:35:44.333Z,1014.85
2019-06-02T07:36:24.917Z,1014.89
2019-06-02T07:37:06.039Z,1014.88
2019-06-02T07:37:46.150Z,1014.92
2019-06-02T07:38:26.674Z,1014.87
2019-06-02T07:39:08.394Z,1014.91
2019-06-02T07:39:47.872Z,1014.89
2019-06-02T07:40:28.465Z,1014.87
2019-06-02T07:41:12.668Z,1014.9
2019-06-02T07:41:49.609Z,1014.87
2019-06-02T07:42:30.201Z,1014.91
2019-06-02T07:43:10.816Z,1014.9
2019-06-02T07:43:51.407Z,1014.87
2019-06-02T07:44:31.989Z,1014.87
2019-06-02T07:45:12.585Z,1014.9
2019-06-02T07:45:53.186Z,1014.89
2019-06-02T07:46:33.760Z,1014.95
2019-06-02T07:47:14.351Z,1014.87
2019-06-02T07:47:54.962Z,1014.9
2019-06-02T07:48:35.545Z,1014.89
2019-06-02T07:49:28.919Z,1014.88
2019-06-02T07:49:56.809Z,1014.86
2019-06-02T07:50:37.410Z,1014.87
2019-06-02T07:51:17.990Z,1014.86
2019-06-02T07:51:59.584Z,1014.84
2019-06-02T07:52:39.362Z,1014.83
2019-06-02T07:53:19.991Z,1014.87
2019-06-02T07:54:02.070Z,1014.79
2019-06-02T07:54:41.247Z,1014.84
2019-06-02T07:55:21.842Z,1014.85
2019-06-02T07:56:03.417Z,1014.8
2019-06-02T07:56:43.035Z,1014.83
2019-06-02T07:57:23.643Z,1014.84
2019-06-02T07:58:04.358Z,1014.83
2019-06-02T07:58:44.814Z,1014.84
2019-06-02T07:59:25.435Z,1014.82
2019-06-02T08:00:06.189Z,1014.83
2019-06-02T08:00:46.635Z,1014.82
2019-06-02T08:01:27.265Z,1014.78
2019-06-02T08:02:08.499Z,1014.82
2019-06-02T08:05:21.966Z,1014.8
2019-06-02T08:06:05.150Z,1014.79
2019-06-02T08:06:43.162Z,1014.77
2019-06-02T08:07:23.747Z,1014.78
2019-06-02T08:08:04.375Z,1014.76
2019-06-02T08:08:44.973Z,1014.79
2019-06-02T08:09:25.589Z,1014.76
2019-06-02T08:10:06.777Z,1014.75
2019-06-02T08:10:49.636Z,1014.75
2019-06-02T08:11:30.243Z,1014.76
2019-06-02T08:12:11.023Z,1014.76
2019-06-02T08:12:51.428Z,1014.76
2019-06-02T08:13:32.002Z,1014.77
2019-06-02T08:14:12.573Z,1014.73
2019-06-02T08:14:53.147Z,1014.72
2019-06-02T08:15:33.727Z,1014.72
2019-06-02T08:16:14.306Z,1014.75
2019-06-02T08:16:54.879Z,1014.71
2019-06-02T08:17:35.466Z,1014.7
2019-06-02T08:18:16.048Z,1014.7
2019-06-02T08:18:56.620Z,1014.67
2019-06-02T08:19:45.429Z,1014.69
2019-06-02T08:20:20.669Z,1014.69
2019-06-02T08:20:58.441Z,1014.68
2019-06-02T08:21:39.096Z,1014.65
2019-06-02T08:22:19.835Z,1014.66
2019-06-02T08:23:00.671Z,1014.7
2019-06-02T08:23:41.047Z,1014.66